Airfield :
LOGIN :

Register | Disclaimer

   EN    FR    IT 

 










Legend :    VFR   Marginal VFR   IFR   Intensive IFR   Very Intensive IFR
Visi :
Ceiling :
>= 8 km
>= 3000ft
5 to 8 km
1000 to 3000 ft
1500m to 5 km
500 to 1000 ft
800 to 1500m
200 to 500 ft
< 800m
< 200 ft
Symbols :   Thunderstorms  Fog  Heavy snow  Heavy precipitations  Wind > 20 kt
SIGMETs :     Misc.  Thunderstorms  Icing  Turbulence  Mountain Waves  Volcanic Ashes







- Airport Elevation : 313 ft
- Download approach charts


LFQA - Reims-Prunay

CURRENT METAR :
  • 171900Z AUTO 35007KT 330V030 9999 BKN029 04/03 Q1026

EXPIRED METARs :
  • 171830Z AUTO 32003KT 4300 BR FEW030 04/03 Q1026
  • 171800Z AUTO VRB02KT 1400 BR FEW031 05/04 Q1026
  • 171730Z AUTO VRB02KT 3700 BR BKN027 BKN033 05/05 Q1027
  • 171700Z AUTO 33003KT 3000 BR FEW024 04/04 Q1026
  • 171630Z AUTO 28003KT 5000 BR NSC 07/06 Q1026

TAF N/A
No reported NOTAMs for that airfield.



MET'MAP, your aeronautical weather chart ! - Copyright ORBIFLY December 2007 - Disclaimer

ORBIFLY MET'MAP TEAM :

Programming & Development : Alexandra Zaïnal
Concept & Development : Baudouin d'Aumeries
Co-Development & Prog : Marc-Olivier Méhu
Technical & hardware support : Manuel Goepfert

Contact : metmap@orbifly.com




SOURCES & CREDITS :

   NOAA